createdAt,value
2022-10-11T00:02:59.754Z,11.00
2022-10-11T00:06:03.785Z,8.20
2022-10-11T00:09:07.745Z,8.20
2022-10-11T00:12:10.832Z,7.90
2022-10-11T00:15:16.875Z,7.40
2022-10-11T00:18:19.947Z,7.90
2022-10-11T00:21:23.127Z,8.50
2022-10-11T00:24:26.085Z,6.60
2022-10-11T00:27:28.935Z,8.70
2022-10-11T00:30:32.431Z,7.20
2022-10-11T00:33:35.734Z,5.90
2022-10-11T00:36:38.875Z,6.20
2022-10-11T00:39:41.683Z,7.90
2022-10-11T00:42:44.791Z,9.30
2022-10-11T00:45:56.457Z,7.10
2022-10-11T00:49:13.632Z,7.20
2022-10-11T00:52:42.084Z,6.20
2022-10-11T00:55:54.224Z,11.70
2022-10-11T00:59:00.012Z,5.00
2022-10-11T01:02:04.879Z,7.50
2022-10-11T01:05:28.648Z,7.60
2022-10-11T01:08:32.724Z,7.00
2022-10-11T01:11:37.745Z,8.80
2022-10-11T01:15:01.880Z,6.80
2022-10-11T01:18:22.183Z,6.90
2022-10-11T01:21:47.008Z,6.20
2022-10-11T01:25:00.629Z,7.90
2022-10-11T01:28:24.964Z,5.60
2022-10-11T01:31:38.693Z,6.70
2022-10-11T01:35:01.762Z,6.30
2022-10-11T01:38:10.270Z,7.80
2022-10-11T01:41:24.058Z,6.90
2022-10-11T01:44:27.866Z,6.90
2022-10-11T01:47:31.024Z,5.50
2022-10-11T01:50:56.956Z,6.10
2022-10-11T01:54:05.882Z,6.60
2022-10-11T01:57:33.748Z,4.70
2022-10-11T02:01:04.198Z,8.50
2022-10-11T02:04:24.996Z,6.20
2022-10-11T02:07:41.039Z,7.70
2022-10-11T02:11:04.090Z,7.50
2022-10-11T02:14:11.628Z,9.40
2022-10-11T02:17:19.384Z,7.30
2022-10-11T02:20:26.251Z,6.20
2022-10-11T02:23:44.007Z,7.20
2022-10-11T02:26:54.659Z,7.40
2022-10-11T02:30:00.848Z,5.00
2022-10-11T02:33:08.417Z,5.70
2022-10-11T02:36:17.371Z,7.90
2022-10-11T02:39:34.455Z,9.00
2022-10-11T02:42:44.705Z,10.50
2022-10-11T02:45:55.900Z,7.80
2022-10-11T02:49:00.699Z,13.10
2022-10-11T02:52:05.289Z,9.20
2022-10-11T02:55:08.704Z,9.10
2022-10-11T02:58:11.495Z,9.60
2022-10-11T03:01:14.880Z,13.40
2022-10-11T03:04:17.716Z,10.50
2022-10-11T03:07:20.493Z,8.60
2022-10-11T03:10:23.325Z,9.30
2022-10-11T03:13:26.184Z,7.60
2022-10-11T03:16:29.064Z,6.30
2022-10-11T03:19:32.837Z,7.90
2022-10-11T03:22:35.680Z,6.80
2022-10-11T03:25:38.785Z,7.40
2022-10-11T03:28:41.707Z,8.00
2022-10-11T03:31:44.581Z,7.80
2022-10-11T03:34:47.416Z,6.50
2022-10-11T03:37:51.492Z,7.30
2022-10-11T03:40:54.827Z,6.00
2022-10-11T03:43:57.611Z,11.70
2022-10-11T03:47:00.374Z,7.10
2022-10-11T03:50:07.578Z,5.90
2022-10-11T03:53:10.483Z,8.60
2022-10-11T03:56:13.579Z,6.20
2022-10-11T03:59:16.942Z,10.80
2022-10-11T04:02:20.081Z,8.50
2022-10-11T04:05:23.023Z,10.50
2022-10-11T04:08:26.241Z,7.30
2022-10-11T04:11:29.056Z,10.60
2022-10-11T04:14:31.911Z,9.00
2022-10-11T04:17:34.821Z,10.30
2022-10-11T04:20:37.797Z,10.70
2022-10-11T04:23:40.595Z,9.00
2022-10-11T04:26:43.341Z,9.20
2022-10-11T04:29:46.122Z,8.20
2022-10-11T04:32:49.029Z,9.00
2022-10-11T04:35:56.213Z,8.50
2022-10-11T04:38:59.113Z,7.10
2022-10-11T04:42:01.904Z,8.90
2022-10-11T04:45:05.682Z,11.70
2022-10-11T04:48:08.743Z,17.60
2022-10-11T04:51:11.575Z,15.00
2022-10-11T04:54:14.628Z,13.10
2022-10-11T04:57:17.411Z,12.50
2022-10-11T05:00:20.319Z,10.40
2022-10-11T05:03:23.988Z,16.40
2022-10-11T05:06:26.856Z,9.40
2022-10-11T05:09:29.742Z,8.30
2022-10-11T05:12:32.579Z,9.30
2022-10-11T05:15:35.405Z,10.30
2022-10-11T05:18:39.240Z,12.60
2022-10-11T05:21:42.117Z,12.70
2022-10-11T05:24:45.005Z,12.40
2022-10-11T05:27:48.017Z,12.20
2022-10-11T05:30:50.854Z,14.90
2022-10-11T05:33:53.722Z,13.90
2022-10-11T05:36:57.216Z,10.90
2022-10-11T05:40:00.071Z,9.70
2022-10-11T05:43:02.908Z,11.40
2022-10-11T05:46:06.202Z,11.00
2022-10-11T05:49:09.644Z,11.50
2022-10-11T05:52:13.685Z,9.30
2022-10-11T05:55:16.549Z,9.70
2022-10-11T05:58:19.455Z,12.20
2022-10-11T06:01:25.082Z,17.20
2022-10-11T06:04:28.172Z,16.40
2022-10-11T06:07:31.094Z,15.80
2022-10-11T06:10:34.920Z,13.00
2022-10-11T06:13:37.761Z,12.30
2022-10-11T06:16:40.736Z,14.20
2022-10-11T06:19:46.370Z,14.70
2022-10-11T06:22:49.263Z,13.50
2022-10-11T06:26:05.961Z,12.80
2022-10-11T06:29:09.902Z,13.40
2022-10-11T06:32:13.430Z,11.70
2022-10-11T06:35:16.358Z,14.60
2022-10-11T06:38:19.250Z,16.40
2022-10-11T06:41:27.464Z,14.80
2022-10-11T06:44:30.338Z,16.30
2022-10-11T06:47:33.261Z,13.80
2022-10-11T06:50:58.643Z,12.40
2022-10-11T06:54:01.949Z,15.00
2022-10-11T06:57:04.883Z,11.60
2022-10-11T07:00:12.514Z,16.10
2022-10-11T07:03:15.645Z,15.80
2022-10-11T07:06:24.549Z,15.30
2022-10-11T07:09:27.371Z,20.00
2022-10-11T07:12:30.162Z,17.70
2022-10-11T07:15:38.151Z,14.90
2022-10-11T07:18:41.001Z,16.50
2022-10-11T07:21:43.831Z,19.80
2022-10-11T07:24:49.100Z,16.80
2022-10-11T07:27:51.897Z,15.50
2022-10-11T07:30:54.791Z,15.70
2022-10-11T07:33:57.689Z,15.50
2022-10-11T07:37:00.527Z,16.30
2022-10-11T07:40:03.901Z,16.00
2022-10-11T07:43:06.726Z,14.60
2022-10-11T07:46:11.303Z,16.80
2022-10-11T07:49:14.206Z,13.50
2022-10-11T07:52:17.093Z,14.10
2022-10-11T07:55:20.291Z,12.00
2022-10-11T07:58:23.082Z,10.60
2022-10-11T08:01:27.559Z,10.90
2022-10-11T08:04:30.435Z,11.70
2022-10-11T08:07:33.369Z,13.20
2022-10-11T08:10:54.207Z,11.90
2022-10-11T08:13:58.229Z,15.50
2022-10-11T08:17:02.444Z,16.90
2022-10-11T08:20:05.680Z,12.90
2022-10-11T08:23:09.627Z,15.00
2022-10-11T08:26:12.554Z,13.60
2022-10-11T08:29:15.408Z,13.00
2022-10-11T08:32:18.272Z,23.90
2022-10-11T08:35:21.992Z,17.50
2022-10-11T08:38:25.386Z,11.30
2022-10-11T08:41:42.330Z,12.60
2022-10-11T08:45:16.185Z,12.40
2022-10-11T08:48:30.101Z,13.70
2022-10-11T08:52:00.150Z,12.70
2022-10-11T08:55:34.829Z,14.90
2022-10-11T08:58:44.531Z,15.10
2022-10-11T09:01:54.501Z,12.90
2022-10-11T09:04:57.499Z,11.80
2022-10-11T09:08:09.043Z,12.40
2022-10-11T09:11:35.761Z,14.60
2022-10-11T09:15:16.675Z,14.70
2022-10-11T09:18:44.933Z,13.20
2022-10-11T09:22:17.067Z,17.10
2022-10-11T09:25:29.827Z,13.50
2022-10-11T09:28:41.889Z,14.30
2022-10-11T09:31:49.167Z,11.80
2022-10-11T09:35:11.225Z,11.60
2022-10-11T09:38:29.599Z,11.40
2022-10-11T09:41:39.569Z,12.40
2022-10-11T09:44:48.263Z,13.30
2022-10-11T09:47:53.676Z,14.50
2022-10-11T09:51:05.263Z,10.90
2022-10-11T09:54:10.521Z,11.30
2022-10-11T09:57:35.947Z,10.70
2022-10-11T10:00:38.927Z,10.30
2022-10-11T10:03:44.098Z,14.20
2022-10-11T10:06:46.968Z,9.50
2022-10-11T10:09:50.591Z,10.10
2022-10-11T10:12:56.231Z,10.60
2022-10-11T10:15:59.530Z,9.90
2022-10-11T10:19:06.489Z,9.60
2022-10-11T10:22:22.818Z,9.80
2022-10-11T10:25:35.952Z,8.80
2022-10-11T10:29:03.851Z,9.10
2022-10-11T10:32:20.921Z,10.00
2022-10-11T10:35:31.571Z,10.90
2022-10-11T10:38:40.446Z,7.80
2022-10-11T10:41:43.304Z,7.40
2022-10-11T10:44:53.100Z,6.90
2022-10-11T10:48:26.004Z,8.00
2022-10-11T10:51:31.999Z,7.70
2022-10-11T10:54:49.229Z,7.70
2022-10-11T10:58:19.983Z,8.50
2022-10-11T11:01:26.608Z,6.80
2022-10-11T11:04:35.074Z,7.00
2022-10-11T11:07:50.179Z,7.60
2022-10-11T11:11:01.034Z,5.30
2022-10-11T11:14:21.669Z,9.50
2022-10-11T11:17:52.158Z,5.90
2022-10-11T11:21:21.052Z,6.40
2022-10-11T11:25:01.558Z,6.20
2022-10-11T11:28:29.603Z,7.50
2022-10-11T11:31:51.423Z,6.20
2022-10-11T11:35:02.219Z,7.50
2022-10-11T11:38:27.137Z,6.50
2022-10-11T11:41:40.758Z,6.80
2022-10-11T11:44:46.883Z,5.40
2022-10-11T11:47:56.171Z,6.60
2022-10-11T11:51:08.916Z,6.70
2022-10-11T11:54:32.393Z,8.30
2022-10-11T11:58:07.575Z,6.70
2022-10-11T12:01:17.903Z,5.40
2022-10-11T12:04:28.583Z,7.10
2022-10-11T12:07:31.539Z,6.30
2022-10-11T12:10:49.569Z,5.10
2022-10-11T12:13:54.019Z,7.60
2022-10-11T12:17:20.166Z,6.20
2022-10-11T12:20:24.947Z,3.90
2022-10-11T12:23:30.808Z,5.30
2022-10-11T12:26:41.564Z,6.70
2022-10-11T12:29:48.412Z,4.90
2022-10-11T12:33:02.827Z,3.50
2022-10-11T12:36:20.653Z,5.40
2022-10-11T12:39:23.985Z,5.70
2022-10-11T12:42:37.009Z,5.20
2022-10-11T12:45:41.735Z,9.00
2022-10-11T12:49:14.186Z,3.90
2022-10-11T12:52:33.720Z,6.20
2022-10-11T12:56:00.835Z,4.00
2022-10-11T12:59:06.973Z,5.80
2022-10-11T13:02:38.832Z,5.40
2022-10-11T13:05:45.223Z,5.80
2022-10-11T13:08:54.835Z,4.90
2022-10-11T13:12:18.614Z,4.60
2022-10-11T13:15:23.678Z,5.40
2022-10-11T13:18:27.125Z,4.50
2022-10-11T13:21:39.553Z,3.90
2022-10-11T13:24:42.837Z,2.80
2022-10-11T13:27:47.758Z,6.20
2022-10-11T13:30:56.325Z,5.80
2022-10-11T13:33:59.988Z,3.90
2022-10-11T13:37:03.101Z,5.60
2022-10-11T13:40:06.778Z,5.60
2022-10-11T13:43:09.899Z,5.90
2022-10-11T13:46:23.033Z,5.30
2022-10-11T13:49:37.308Z,6.30
2022-10-11T13:52:58.019Z,4.10
2022-10-11T13:56:05.033Z,4.80
2022-10-11T13:59:21.011Z,5.60
2022-10-11T14:02:25.944Z,6.10
2022-10-11T14:05:36.711Z,3.90
2022-10-11T14:08:46.747Z,3.70
2022-10-11T14:11:50.234Z,4.60
2022-10-11T14:14:53.138Z,5.10
2022-10-11T14:17:56.257Z,3.50
2022-10-11T14:21:23.582Z,3.70
2022-10-11T14:24:27.383Z,5.70
2022-10-11T14:27:30.664Z,6.30
2022-10-11T14:30:33.546Z,3.80
2022-10-11T14:33:37.359Z,6.10
2022-10-11T14:36:40.521Z,5.00
2022-10-11T14:39:43.582Z,5.10
2022-10-11T14:42:46.784Z,4.60
2022-10-11T14:45:49.880Z,3.10
2022-10-11T14:48:55.854Z,4.10
2022-10-11T14:51:59.474Z,4.90
2022-10-11T14:55:02.336Z,6.10
2022-10-11T14:58:06.330Z,8.40
2022-10-11T15:01:16.329Z,6.00
2022-10-11T15:04:21.239Z,5.80
2022-10-11T15:07:24.061Z,25.00
2022-10-11T15:10:31.463Z,6.20
2022-10-11T15:13:34.355Z,7.50
2022-10-11T15:16:37.330Z,6.50
2022-10-11T15:19:40.088Z,11.00
2022-10-11T15:22:42.886Z,7.60
2022-10-11T15:25:46.289Z,10.20
2022-10-11T15:28:50.859Z,7.80
2022-10-11T15:31:53.736Z,8.20
2022-10-11T15:34:56.572Z,7.60
2022-10-11T15:38:00.301Z,8.20
2022-10-11T15:41:04.432Z,7.80
2022-10-11T15:44:07.229Z,7.70
2022-10-11T15:47:10.956Z,7.60
2022-10-11T15:50:19.031Z,10.00
2022-10-11T15:53:26.501Z,9.10
2022-10-11T15:56:33.668Z,14.00
2022-10-11T15:59:37.354Z,12.60
2022-10-11T16:02:40.775Z,14.90
2022-10-11T16:05:44.594Z,12.80
2022-10-11T16:08:48.090Z,16.50
2022-10-11T16:11:51.000Z,16.50
2022-10-11T16:14:54.646Z,22.50
2022-10-11T16:17:58.226Z,25.60
2022-10-11T16:21:01.205Z,24.70
2022-10-11T16:24:04.854Z,39.70
2022-10-11T16:27:07.721Z,32.10
2022-10-11T16:30:16.899Z,33.00
2022-10-11T16:33:19.917Z,30.70
2022-10-11T16:36:32.590Z,31.00
2022-10-11T16:39:36.268Z,25.70
2022-10-11T16:42:39.471Z,27.50
2022-10-11T16:45:42.393Z,20.80
2022-10-11T16:48:45.347Z,16.50
2022-10-11T16:51:48.860Z,15.80
2022-10-11T16:54:51.876Z,16.40
2022-10-11T16:57:54.801Z,14.50
2022-10-11T17:00:57.801Z,17.00
2022-10-11T17:04:01.157Z,13.30
2022-10-11T17:07:05.866Z,9.80
2022-10-11T17:10:08.895Z,13.00
2022-10-11T17:13:12.214Z,10.60
2022-10-11T17:16:16.509Z,14.80
2022-10-11T17:19:19.333Z,12.10
2022-10-11T17:22:22.227Z,10.80
2022-10-11T17:25:25.300Z,14.60
2022-10-11T17:28:28.240Z,11.40
2022-10-11T17:31:31.561Z,8.30
2022-10-11T17:34:34.731Z,14.90
2022-10-11T17:37:37.595Z,13.20
2022-10-11T17:40:40.360Z,13.30
2022-10-11T17:43:43.484Z,16.40
2022-10-11T17:46:46.974Z,20.50
2022-10-11T17:49:49.962Z,24.80
2022-10-11T17:52:53.877Z,24.20
2022-10-11T17:55:59.812Z,37.10
2022-10-11T17:59:02.782Z,97.60
2022-10-11T18:02:06.343Z,108.30
2022-10-11T18:05:09.318Z,134.40
2022-10-11T18:08:12.720Z,157.30
2022-10-11T18:11:19.047Z,139.30
2022-10-11T18:14:22.045Z,127.90
2022-10-11T18:17:24.894Z,119.50
2022-10-11T18:20:28.451Z,109.70
2022-10-11T18:23:32.550Z,107.50
2022-10-11T18:26:35.427Z,104.30
2022-10-11T18:29:38.460Z,96.10
2022-10-11T18:32:41.462Z,93.00
2022-10-11T18:35:47.198Z,90.90
2022-10-11T18:38:54.505Z,83.80
2022-10-11T18:41:57.307Z,99.30
2022-10-11T18:45:00.097Z,96.20
2022-10-11T18:48:03.103Z,101.80
2022-10-11T18:51:08.953Z,97.40
2022-10-11T18:54:15.455Z,114.80
2022-10-11T18:57:21.458Z,108.80
2022-10-11T19:00:40.027Z,101.80
2022-10-11T19:03:45.847Z,105.90
2022-10-11T19:06:49.754Z,108.60
2022-10-11T19:09:53.232Z,117.20
2022-10-11T19:12:56.230Z,115.60
2022-10-11T19:16:11.128Z,113.30
2022-10-11T19:19:13.959Z,100.50
2022-10-11T19:22:16.988Z,87.30
2022-10-11T19:25:19.920Z,80.30
2022-10-11T19:28:22.753Z,83.80
2022-10-11T19:31:25.748Z,76.40
2022-10-11T19:34:30.033Z,82.70
2022-10-11T19:37:33.086Z,90.20
2022-10-11T19:40:39.478Z,82.30
2022-10-11T19:43:43.256Z,80.30
2022-10-11T19:46:53.483Z,75.60
2022-10-11T19:49:56.361Z,76.60
2022-10-11T19:52:59.179Z,81.90
2022-10-11T19:56:07.969Z,87.90
2022-10-11T19:59:12.071Z,74.60
2022-10-11T20:02:15.220Z,65.30
2022-10-11T20:05:18.113Z,58.70
2022-10-11T20:08:21.113Z,55.00
2022-10-11T20:11:24.887Z,56.80
2022-10-11T20:14:27.754Z,51.50
2022-10-11T20:17:56.791Z,50.90
2022-10-11T20:21:03.401Z,65.10
2022-10-11T20:24:08.509Z,65.00
2022-10-11T20:27:11.309Z,71.00
2022-10-11T20:30:14.791Z,68.40
2022-10-11T20:33:17.590Z,67.50
2022-10-11T20:36:22.020Z,64.50
2022-10-11T20:39:25.335Z,74.40
2022-10-11T20:42:29.965Z,77.60
2022-10-11T20:45:32.907Z,82.70
2022-10-11T20:48:37.072Z,84.20
2022-10-11T20:51:41.889Z,88.20
2022-10-11T20:54:44.756Z,98.60
2022-10-11T20:57:47.665Z,84.80
2022-10-11T21:00:50.590Z,84.50
2022-10-11T21:03:54.199Z,89.90
2022-10-11T21:06:57.072Z,76.80
2022-10-11T21:10:00.042Z,68.30
2022-10-11T21:13:03.280Z,61.40
2022-10-11T21:16:13.523Z,61.00
2022-10-11T21:19:16.403Z,57.30
2022-10-11T21:22:19.547Z,53.40
2022-10-11T21:25:22.340Z,57.60
2022-10-11T21:28:25.210Z,50.90
2022-10-11T21:31:33.601Z,60.60
2022-10-11T21:34:37.680Z,55.50
2022-10-11T21:37:40.483Z,51.10
2022-10-11T21:40:43.291Z,55.90
2022-10-11T21:43:47.311Z,55.40
2022-10-11T21:47:07.343Z,45.50
2022-10-11T21:50:10.566Z,46.30
2022-10-11T21:53:13.344Z,47.20
2022-10-11T21:56:16.310Z,52.90
2022-10-11T21:59:19.123Z,46.10
2022-10-11T22:02:21.904Z,45.40
2022-10-11T22:05:24.914Z,46.70
2022-10-11T22:08:27.688Z,46.50
2022-10-11T22:11:32.194Z,48.80
2022-10-11T22:14:35.314Z,47.20
2022-10-11T22:17:38.093Z,52.50
2022-10-11T22:20:40.982Z,44.10
2022-10-11T22:23:46.745Z,49.30
2022-10-11T22:26:49.523Z,48.10
2022-10-11T22:29:52.350Z,47.00
2022-10-11T22:32:55.152Z,47.50
2022-10-11T22:36:00.690Z,40.70
2022-10-11T22:39:07.844Z,40.30
2022-10-11T22:42:10.748Z,36.40
2022-10-11T22:45:13.636Z,42.30
2022-10-11T22:48:16.498Z,39.30
2022-10-11T22:51:19.586Z,39.40
2022-10-11T22:54:22.435Z,38.10
2022-10-11T22:57:25.229Z,42.70
2022-10-11T23:00:28.149Z,38.70
2022-10-11T23:03:31.036Z,42.30
2022-10-11T23:06:33.863Z,36.10
2022-10-11T23:09:36.692Z,34.60
2022-10-11T23:12:39.519Z,33.70
2022-10-11T23:15:42.656Z,36.30
2022-10-11T23:18:45.517Z,39.00
2022-10-11T23:21:48.496Z,33.60
2022-10-11T23:24:51.397Z,37.20
2022-10-11T23:27:54.219Z,37.30
2022-10-11T23:30:57.082Z,33.00
2022-10-11T23:33:59.911Z,26.90
2022-10-11T23:37:03.353Z,27.80
2022-10-11T23:40:06.883Z,28.10
2022-10-11T23:43:09.693Z,31.40
2022-10-11T23:46:12.544Z,33.40
2022-10-11T23:49:15.470Z,32.70
2022-10-11T23:52:18.440Z,34.50
2022-10-11T23:55:21.402Z,36.40
2022-10-11T23:58:24.186Z,38.20
